createdAt,value
2018-05-24T00:02:05.453Z,1.60
2018-05-24T00:04:33.083Z,1.63
2018-05-24T00:07:00.679Z,1.50
2018-05-24T00:09:29.055Z,1.53
2018-05-24T00:11:56.675Z,1.93
2018-05-24T00:14:24.236Z,1.50
2018-05-24T00:16:51.866Z,1.50
2018-05-24T00:19:19.475Z,1.70
2018-05-24T00:21:47.071Z,2.17
2018-05-24T00:24:14.647Z,1.50
2018-05-24T00:26:42.252Z,1.50
2018-05-24T00:29:10.671Z,1.43
2018-05-24T00:31:39.044Z,1.77
2018-05-24T00:34:07.405Z,1.50
2018-05-24T00:36:34.975Z,1.57
2018-05-24T00:39:03.371Z,1.90
2018-05-24T00:41:31.749Z,1.80
2018-05-24T00:44:00.102Z,1.37
2018-05-24T00:46:27.715Z,1.70
2018-05-24T00:48:55.312Z,1.50
2018-05-24T00:51:22.905Z,1.30
2018-05-24T00:53:51.259Z,1.40
2018-05-24T00:56:18.876Z,1.53
2018-05-24T00:58:46.448Z,1.50
2018-05-24T01:01:14.044Z,1.87
2018-05-24T01:03:41.668Z,1.50
2018-05-24T01:06:09.236Z,1.67
2018-05-24T01:08:36.894Z,1.70
2018-05-24T01:11:04.467Z,1.67
2018-05-24T01:13:32.057Z,1.53
2018-05-24T01:15:59.665Z,1.50
2018-05-24T01:18:27.238Z,1.63
2018-05-24T01:20:54.848Z,1.60
2018-05-24T01:23:23.217Z,1.20
2018-05-24T01:25:50.865Z,2.10
2018-05-24T01:28:18.467Z,1.43
2018-05-24T01:30:46.069Z,1.33
2018-05-24T01:33:13.686Z,1.50
2018-05-24T01:35:42.018Z,1.30
2018-05-24T01:38:09.659Z,1.27
2018-05-24T01:40:37.288Z,1.50
2018-05-24T01:43:05.624Z,2.07
2018-05-24T01:45:33.198Z,2.87
2018-05-24T01:48:00.794Z,1.73
2018-05-24T01:50:28.442Z,1.33
2018-05-24T01:52:56.832Z,2.17
2018-05-24T01:55:24.468Z,1.40
2018-05-24T01:57:52.080Z,2.23
2018-05-24T02:00:19.717Z,1.53
2018-05-24T02:02:47.262Z,1.77
2018-05-24T02:05:15.614Z,1.40
2018-05-24T02:07:43.262Z,1.60
2018-05-24T02:10:10.933Z,1.70
2018-05-24T02:12:38.492Z,1.57
2018-05-24T02:15:06.104Z,1.67
2018-05-24T02:17:33.679Z,2.57
2018-05-24T02:20:01.272Z,2.00
2018-05-24T02:22:28.892Z,1.67
2018-05-24T02:24:56.491Z,2.10
2018-05-24T02:27:24.084Z,2.00
2018-05-24T02:29:51.746Z,2.03
2018-05-24T02:32:19.333Z,1.67
2018-05-24T02:34:46.977Z,2.00
2018-05-24T02:37:14.591Z,1.80
2018-05-24T02:39:42.164Z,1.97
2018-05-24T02:42:09.743Z,1.57
2018-05-24T02:44:37.375Z,1.80
2018-05-24T02:47:04.937Z,1.77
2018-05-24T02:49:32.531Z,2.20
2018-05-24T02:52:00.946Z,2.10
2018-05-24T02:54:28.542Z,2.20
2018-05-24T02:56:56.111Z,1.83
2018-05-24T02:59:23.710Z,2.00
2018-05-24T03:01:51.302Z,2.10
2018-05-24T03:04:19.177Z,1.87
2018-05-24T03:06:47.940Z,1.70
2018-05-24T03:09:15.564Z,2.37
2018-05-24T03:11:43.940Z,2.03
2018-05-24T03:14:11.602Z,2.40
2018-05-24T03:16:39.151Z,2.23
2018-05-24T03:19:06.747Z,1.90
2018-05-24T03:21:34.375Z,1.47
2018-05-24T03:24:01.974Z,1.77
2018-05-24T03:26:29.578Z,2.20
2018-05-24T03:28:57.194Z,1.90
2018-05-24T03:31:24.772Z,1.83
2018-05-24T03:33:52.418Z,2.40
2018-05-24T03:36:20.001Z,1.40
2018-05-24T03:38:47.605Z,1.77
2018-05-24T03:41:16.005Z,1.73
2018-05-24T03:43:44.433Z,1.80
2018-05-24T03:46:12.046Z,2.37
2018-05-24T03:48:40.403Z,2.17
2018-05-24T03:51:08.036Z,1.83
2018-05-24T03:53:35.634Z,1.93
2018-05-24T03:56:03.233Z,1.53
2018-05-24T03:58:30.821Z,1.87
2018-05-24T04:01:11.096Z,2.03
2018-05-24T04:03:49.557Z,2.20
2018-05-24T04:06:17.148Z,2.10
2018-05-24T04:08:44.723Z,2.23
2018-05-24T04:11:13.229Z,2.93
2018-05-24T04:13:40.820Z,1.87
2018-05-24T04:16:08.377Z,2.23
2018-05-24T04:18:35.964Z,2.20
2018-05-24T04:21:03.550Z,1.80
2018-05-24T04:23:31.148Z,2.00
2018-05-24T04:25:58.769Z,2.07
2018-05-24T04:28:26.372Z,1.80
2018-05-24T04:30:54.757Z,1.87
2018-05-24T04:33:22.390Z,2.70
2018-05-24T04:35:50.109Z,2.20
2018-05-24T04:38:17.716Z,1.53
2018-05-24T04:40:45.328Z,2.40
2018-05-24T04:43:12.887Z,2.10
2018-05-24T04:45:40.447Z,2.27
2018-05-24T04:48:08.082Z,1.53
2018-05-24T04:50:35.664Z,2.30
2018-05-24T04:53:03.299Z,2.60
2018-05-24T04:55:31.708Z,2.53
2018-05-24T04:57:59.315Z,2.73
2018-05-24T05:00:26.973Z,1.90
2018-05-24T05:02:54.604Z,2.13
2018-05-24T05:05:22.804Z,2.20
2018-05-24T05:07:50.421Z,2.53
2018-05-24T05:10:18.090Z,1.93
2018-05-24T05:12:45.705Z,2.43
2018-05-24T05:15:14.090Z,2.50
2018-05-24T05:17:41.943Z,2.40
2018-05-24T05:20:09.517Z,1.90
2018-05-24T05:22:37.082Z,2.60
2018-05-24T05:25:05.543Z,2.40
2018-05-24T05:27:33.060Z,2.33
2018-05-24T05:30:00.714Z,3.00
2018-05-24T05:32:28.342Z,2.20
2018-05-24T05:34:55.958Z,2.50
2018-05-24T05:37:23.558Z,2.40
2018-05-24T05:39:51.928Z,2.73
2018-05-24T05:42:19.495Z,2.20
2018-05-24T05:44:47.090Z,2.13
2018-05-24T05:47:14.731Z,2.03
2018-05-24T05:49:42.312Z,1.97
2018-05-24T05:52:09.998Z,2.77
2018-05-24T05:54:37.722Z,4.30
2018-05-24T05:57:05.326Z,3.27
2018-05-24T05:59:32.918Z,2.93
2018-05-24T06:02:00.643Z,2.70
2018-05-24T06:04:28.237Z,2.50
2018-05-24T06:06:56.215Z,2.80
2018-05-24T06:09:23.825Z,2.53
2018-05-24T06:11:51.444Z,3.60
2018-05-24T06:14:19.791Z,2.90
2018-05-24T06:16:47.418Z,2.60
2018-05-24T06:19:14.989Z,2.90
2018-05-24T06:21:42.593Z,2.77
2018-05-24T06:24:10.211Z,3.03
2018-05-24T06:26:37.855Z,2.80
2018-05-24T06:29:05.425Z,2.83
2018-05-24T06:31:33.041Z,3.47
2018-05-24T06:34:00.615Z,2.80
2018-05-24T06:36:28.246Z,2.97
2018-05-24T06:38:56.619Z,3.73
2018-05-24T06:41:24.214Z,3.10
2018-05-24T06:43:51.811Z,3.20
2018-05-24T06:46:19.447Z,3.60
2018-05-24T06:48:47.079Z,2.93
2018-05-24T06:51:14.703Z,3.50
2018-05-24T06:53:42.354Z,3.20
2018-05-24T06:56:10.684Z,3.30
2018-05-24T06:58:38.306Z,2.87
2018-05-24T07:01:05.915Z,3.10
2018-05-24T07:03:33.507Z,3.10
2018-05-24T07:06:01.216Z,2.70
2018-05-24T07:08:28.792Z,3.87
2018-05-24T07:10:56.399Z,3.33
2018-05-24T07:13:24.019Z,3.03
2018-05-24T07:15:51.591Z,4.00
2018-05-24T07:18:19.951Z,3.37
2018-05-24T07:20:47.517Z,3.67
2018-05-24T07:23:15.186Z,4.10
2018-05-24T07:25:43.590Z,4.17
2018-05-24T07:28:11.176Z,3.00
2018-05-24T07:30:38.802Z,3.67
2018-05-24T07:33:06.367Z,3.77
2018-05-24T07:35:33.985Z,3.70
2018-05-24T07:38:01.570Z,3.30
2018-05-24T07:40:29.925Z,3.30
2018-05-24T07:42:57.518Z,4.00
2018-05-24T07:45:25.508Z,3.90
2018-05-24T07:47:53.933Z,4.70
2018-05-24T07:50:21.526Z,4.07
2018-05-24T07:52:49.197Z,3.97
2018-05-24T07:55:16.865Z,4.40
2018-05-24T07:57:44.500Z,3.60
2018-05-24T08:00:12.892Z,3.40
2018-05-24T08:02:41.247Z,3.97
2018-05-24T08:05:08.849Z,4.20
2018-05-24T08:07:36.469Z,4.50
2018-05-24T08:10:04.060Z,4.33
2018-05-24T08:12:32.385Z,4.13
2018-05-24T08:15:00.746Z,4.70
2018-05-24T08:17:28.309Z,4.03
2018-05-24T08:19:55.891Z,5.07
2018-05-24T08:22:23.600Z,5.90
2018-05-24T08:24:51.138Z,4.87
2018-05-24T08:27:18.782Z,4.83
2018-05-24T08:29:46.438Z,5.40
2018-05-24T08:32:14.063Z,5.60
2018-05-24T08:34:41.625Z,5.63
2018-05-24T08:37:09.197Z,4.97
2018-05-24T08:39:36.781Z,5.73
2018-05-24T08:42:04.518Z,5.13
2018-05-24T08:44:32.067Z,6.37
2018-05-24T08:46:59.708Z,5.70
2018-05-24T08:49:27.248Z,6.00
2018-05-24T08:51:55.647Z,5.60
2018-05-24T08:54:23.995Z,6.13
2018-05-24T08:56:51.560Z,6.23
2018-05-24T08:59:19.177Z,5.60
2018-05-24T09:01:46.755Z,5.47
2018-05-24T09:04:14.419Z,6.40
2018-05-24T09:06:42.053Z,5.97
2018-05-24T09:09:09.723Z,6.10
2018-05-24T09:11:37.305Z,6.60
2018-05-24T09:14:04.903Z,6.00
2018-05-24T09:16:33.235Z,6.47
2018-05-24T09:19:00.815Z,6.90
2018-05-24T09:21:28.417Z,6.37
2018-05-24T09:23:56.028Z,6.30
2018-05-24T09:26:23.670Z,6.73
2018-05-24T09:28:51.277Z,6.40
2018-05-24T09:31:18.849Z,6.07
2018-05-24T09:33:47.164Z,6.47
2018-05-24T09:36:14.772Z,6.83
2018-05-24T09:38:42.308Z,6.40
2018-05-24T09:41:09.872Z,6.97
2018-05-24T09:43:37.450Z,5.43
2018-05-24T09:46:05.030Z,6.20
2018-05-24T09:48:32.651Z,6.50
2018-05-24T09:51:00.253Z,7.90
2018-05-24T09:53:28.634Z,6.80
2018-05-24T09:55:57.001Z,6.97
2018-05-24T09:58:25.358Z,6.77
2018-05-24T10:00:52.951Z,6.80
2018-05-24T10:03:21.290Z,6.53
2018-05-24T10:05:48.900Z,6.17
2018-05-24T10:08:16.545Z,6.37
2018-05-24T10:10:44.899Z,6.67
2018-05-24T10:13:12.517Z,6.60
2018-05-24T10:15:40.090Z,6.13
2018-05-24T10:18:07.650Z,5.20
2018-05-24T10:20:35.254Z,7.40
2018-05-24T10:23:03.643Z,5.57
2018-05-24T10:25:31.998Z,6.47
2018-05-24T10:27:59.629Z,7.20
2018-05-24T10:30:27.278Z,7.60
2018-05-24T10:32:54.953Z,6.80
2018-05-24T10:35:23.309Z,7.93
2018-05-24T10:37:50.871Z,7.50
2018-05-24T10:40:18.465Z,8.10
2018-05-24T10:42:46.805Z,8.60
2018-05-24T10:45:14.480Z,8.00
2018-05-24T10:47:42.278Z,8.43
2018-05-24T10:50:09.938Z,7.43
2018-05-24T10:52:38.308Z,7.50
2018-05-24T10:55:05.940Z,9.33
2018-05-24T10:57:33.577Z,7.37
2018-05-24T11:00:01.209Z,7.80
2018-05-24T11:02:28.906Z,8.37
2018-05-24T11:04:57.360Z,8.30
2018-05-24T11:07:24.952Z,9.30
2018-05-24T11:09:52.519Z,8.83
2018-05-24T11:12:20.114Z,7.30
2018-05-24T11:14:47.743Z,7.33
2018-05-24T11:17:15.325Z,8.70
2018-05-24T11:19:43.013Z,9.03
2018-05-24T11:22:10.602Z,9.47
2018-05-24T11:24:38.221Z,8.73
2018-05-24T11:27:05.810Z,7.83
2018-05-24T11:29:34.172Z,7.50
2018-05-24T11:32:01.825Z,8.60
2018-05-24T11:34:29.435Z,9.50
2018-05-24T11:36:57.091Z,8.27
2018-05-24T11:39:24.707Z,7.77
2018-05-24T11:41:52.296Z,7.43
2018-05-24T11:44:20.666Z,9.10
2018-05-24T11:46:48.244Z,7.20
2018-05-24T11:49:15.874Z,9.50
2018-05-24T11:51:43.474Z,9.30
2018-05-24T11:54:11.847Z,8.70
2018-05-24T11:56:39.431Z,8.40
2018-05-24T11:59:07.044Z,8.10
2018-05-24T12:01:34.708Z,8.60
2018-05-24T12:04:02.304Z,9.07
2018-05-24T12:06:30.654Z,8.43
2018-05-24T12:08:59.066Z,7.90
2018-05-24T12:11:26.653Z,8.00
2018-05-24T12:13:54.238Z,8.20
2018-05-24T12:16:21.832Z,7.20
2018-05-24T12:18:50.173Z,8.50
2018-05-24T12:21:17.774Z,8.70
2018-05-24T12:23:46.136Z,7.60
2018-05-24T12:26:13.716Z,8.27
2018-05-24T12:28:41.313Z,8.87
2018-05-24T12:31:08.985Z,8.67
2018-05-24T12:33:36.667Z,9.90
2018-05-24T12:36:05.315Z,9.30
2018-05-24T12:38:32.922Z,8.83
2018-05-24T12:41:00.572Z,9.60
2018-05-24T12:43:28.167Z,10.10
2018-05-24T12:45:55.798Z,10.20
2018-05-24T12:48:23.415Z,9.47
2018-05-24T12:50:51.038Z,9.20
2018-05-24T12:53:18.673Z,9.60
2018-05-24T12:55:46.295Z,10.13
2018-05-24T12:58:13.898Z,9.70
2018-05-24T13:00:41.529Z,11.07
2018-05-24T13:03:09.170Z,9.73
2018-05-24T13:05:36.762Z,10.20
2018-05-24T13:08:04.345Z,9.23
2018-05-24T13:10:31.985Z,9.20
2018-05-24T13:12:59.605Z,10.00
2018-05-24T13:15:27.202Z,9.83
2018-05-24T13:17:54.803Z,10.07
2018-05-24T13:20:22.410Z,9.93
2018-05-24T13:22:49.976Z,9.77
2018-05-24T13:25:17.591Z,10.63
2018-05-24T13:27:45.910Z,9.27
2018-05-24T13:30:13.515Z,9.60
2018-05-24T13:32:41.114Z,11.07
2018-05-24T13:35:08.679Z,9.80
2018-05-24T13:37:36.289Z,10.90
2018-05-24T13:40:03.880Z,9.67
2018-05-24T13:42:32.258Z,9.97
2018-05-24T13:45:00.625Z,11.27
2018-05-24T13:47:28.213Z,11.83
2018-05-24T13:49:55.820Z,10.17
2018-05-24T13:52:23.441Z,11.17
2018-05-24T13:54:52.873Z,10.37
2018-05-24T13:57:32.217Z,9.90
2018-05-24T14:00:00.598Z,10.90
2018-05-24T14:02:28.200Z,10.93
2018-05-24T14:04:56.550Z,10.67
2018-05-24T14:07:24.153Z,9.73
2018-05-24T14:09:51.759Z,10.57
2018-05-24T14:12:19.370Z,10.00
2018-05-24T14:14:47.459Z,11.57
2018-05-24T14:17:15.040Z,11.00
2018-05-24T14:19:42.685Z,11.40
2018-05-24T14:22:10.374Z,10.53
2018-05-24T14:24:38.038Z,12.57
2018-05-24T14:27:05.657Z,11.13
2018-05-24T14:29:33.977Z,12.30
2018-05-24T14:32:01.699Z,13.37
2018-05-24T14:34:29.301Z,11.60
2018-05-24T14:36:56.958Z,13.23
2018-05-24T14:39:24.624Z,11.17
2018-05-24T14:41:52.276Z,12.50
2018-05-24T14:44:19.885Z,11.93
2018-05-24T14:46:48.306Z,12.83
2018-05-24T14:49:15.908Z,12.97
2018-05-24T14:51:43.532Z,13.33
2018-05-24T14:54:11.135Z,13.40
2018-05-24T14:56:38.811Z,13.23
2018-05-24T14:59:07.171Z,13.20
2018-05-24T15:01:34.775Z,12.60
2018-05-24T15:04:02.393Z,11.00
2018-05-24T15:06:29.979Z,12.03
2018-05-24T15:08:57.630Z,12.67
2018-05-24T15:11:26.022Z,13.37
2018-05-24T15:13:53.722Z,12.47
2018-05-24T15:16:21.308Z,12.60
2018-05-24T15:18:48.946Z,11.90
2018-05-24T15:21:16.572Z,13.17
2018-05-24T15:23:44.238Z,14.43
2018-05-24T15:26:11.889Z,13.17
2018-05-24T15:28:40.307Z,13.67
2018-05-24T15:31:08.168Z,14.30
2018-05-24T15:33:35.821Z,12.50
2018-05-24T15:36:03.466Z,11.87
2018-05-24T15:38:31.153Z,14.00
2018-05-24T15:40:58.818Z,13.70
2018-05-24T15:43:26.489Z,13.70
2018-05-24T15:45:54.113Z,13.50
2018-05-24T15:48:21.781Z,11.20
2018-05-24T15:50:49.522Z,12.53
2018-05-24T15:53:17.214Z,12.03
2018-05-24T15:55:44.938Z,12.97
2018-05-24T15:58:12.550Z,12.80
2018-05-24T16:00:40.187Z,11.63
2018-05-24T16:03:08.612Z,13.73
2018-05-24T16:05:36.227Z,11.03
2018-05-24T16:08:04.656Z,11.40
2018-05-24T16:10:32.271Z,12.00
2018-05-24T16:12:59.882Z,11.77
2018-05-24T16:15:27.497Z,10.33
2018-05-24T16:17:55.186Z,11.30
2018-05-24T16:20:22.812Z,11.27
2018-05-24T16:22:50.510Z,10.67
2018-05-24T16:25:18.167Z,11.30
2018-05-24T16:27:45.802Z,11.20
2018-05-24T16:30:13.384Z,12.23
2018-05-24T16:32:40.987Z,11.50
2018-05-24T16:35:08.586Z,13.13
2018-05-24T16:37:36.964Z,13.20
2018-05-24T16:40:05.406Z,11.27
2018-05-24T16:42:33.055Z,11.40
2018-05-24T16:45:00.733Z,10.83
2018-05-24T16:47:29.305Z,13.07
2018-05-24T16:49:56.960Z,11.87
2018-05-24T16:52:24.586Z,13.50
2018-05-24T16:54:52.185Z,12.13
2018-05-24T16:57:19.833Z,12.13
2018-05-24T16:59:47.968Z,13.47
2018-05-24T17:02:15.575Z,12.60
2018-05-24T17:04:43.172Z,11.30
2018-05-24T17:07:10.794Z,11.43
2018-05-24T17:09:38.511Z,13.27
2018-05-24T17:12:06.216Z,11.27
2018-05-24T17:14:34.643Z,11.33
2018-05-24T17:17:02.209Z,12.93
2018-05-24T17:19:30.584Z,13.60
2018-05-24T17:21:58.250Z,12.83
2018-05-24T17:24:27.499Z,11.53
2018-05-24T17:26:55.135Z,11.50
2018-05-24T17:29:22.815Z,12.70
2018-05-24T17:31:50.454Z,11.33
2018-05-24T17:34:18.084Z,11.00
2018-05-24T17:36:45.678Z,11.10
2018-05-24T17:39:14.058Z,12.40
2018-05-24T17:41:41.736Z,11.63
2018-05-24T17:44:09.463Z,12.07
2018-05-24T17:46:37.142Z,12.27
2018-05-24T17:49:04.735Z,13.43
2018-05-24T17:51:32.358Z,12.93
2018-05-24T17:53:59.992Z,12.37
2018-05-24T17:56:27.624Z,11.67
2018-05-24T17:58:56.024Z,11.80
2018-05-24T18:01:23.701Z,12.60
2018-05-24T18:03:51.295Z,12.30
2018-05-24T18:06:18.911Z,12.40
2018-05-24T18:08:46.541Z,11.90
2018-05-24T18:11:14.132Z,11.57
2018-05-24T18:13:41.724Z,11.20
2018-05-24T18:16:09.345Z,12.63
2018-05-24T18:18:36.957Z,11.40
2018-05-24T18:21:04.561Z,11.60
2018-05-24T18:23:32.170Z,11.30
2018-05-24T18:26:00.556Z,12.90
2018-05-24T18:28:28.922Z,11.43
2018-05-24T18:30:57.302Z,13.60
2018-05-24T18:33:25.660Z,14.43
2018-05-24T18:35:53.290Z,12.07
2018-05-24T18:38:20.908Z,12.60
2018-05-24T18:40:48.575Z,11.33
2018-05-24T18:43:16.966Z,11.87
2018-05-24T18:45:44.584Z,12.43
2018-05-24T18:48:12.191Z,11.97
2018-05-24T18:50:39.857Z,12.40
2018-05-24T18:53:07.482Z,12.30
2018-05-24T18:55:35.884Z,13.13
2018-05-24T18:58:03.610Z,12.10
2018-05-24T19:00:31.207Z,12.20
2018-05-24T19:02:58.819Z,11.30
2018-05-24T19:05:26.430Z,11.37
2018-05-24T19:07:54.139Z,10.57
2018-05-24T19:10:21.814Z,10.23
2018-05-24T19:12:49.449Z,10.90
2018-05-24T19:15:17.003Z,11.23
2018-05-24T19:17:44.614Z,11.33
2018-05-24T19:20:12.198Z,12.33
2018-05-24T19:22:39.800Z,11.23
2018-05-24T19:25:07.393Z,11.90
2018-05-24T19:27:34.966Z,13.13
2018-05-24T19:30:02.589Z,11.37
2018-05-24T19:32:30.199Z,12.03
2018-05-24T19:34:57.829Z,11.37
2018-05-24T19:37:25.462Z,11.40
2018-05-24T19:39:53.071Z,11.30
2018-05-24T19:42:21.441Z,10.83
2018-05-24T19:44:49.204Z,11.90
2018-05-24T19:47:17.811Z,12.27
2018-05-24T19:49:45.469Z,12.67
2018-05-24T19:52:13.090Z,11.63
2018-05-24T19:54:40.721Z,13.03
2018-05-24T19:57:09.404Z,13.47
2018-05-24T19:59:37.019Z,12.90
2018-05-24T20:02:05.485Z,11.40
2018-05-24T20:04:33.108Z,12.10
2018-05-24T20:07:00.700Z,12.60
2018-05-24T20:09:28.308Z,11.20
2018-05-24T20:11:56.233Z,12.90
2018-05-24T20:14:23.848Z,11.37
2018-05-24T20:16:52.047Z,11.33
2018-05-24T20:19:19.653Z,10.40
2018-05-24T20:21:47.346Z,9.57
2018-05-24T20:24:14.955Z,9.10
2018-05-24T20:26:42.588Z,9.43
2018-05-24T20:29:10.158Z,9.80
2018-05-24T20:31:37.784Z,10.63
2018-05-24T20:34:05.426Z,10.80
2018-05-24T20:36:33.756Z,10.17
2018-05-24T20:39:01.635Z,11.10
2018-05-24T20:41:29.252Z,10.33
2018-05-24T20:43:56.919Z,10.20
2018-05-24T20:46:24.507Z,11.80
2018-05-24T20:48:52.171Z,11.30
2018-05-24T20:51:19.827Z,11.00
2018-05-24T20:53:47.422Z,11.50
2018-05-24T20:56:15.021Z,11.87
2018-05-24T20:58:42.673Z,11.30
2018-05-24T21:01:11.029Z,12.47
2018-05-24T21:03:38.632Z,11.67
2018-05-24T21:06:06.278Z,12.03
2018-05-24T21:08:34.652Z,13.40
2018-05-24T21:11:02.253Z,12.10
2018-05-24T21:13:29.883Z,12.47
2018-05-24T21:15:57.519Z,12.33
2018-05-24T21:18:25.119Z,12.93
2018-05-24T21:20:52.724Z,15.00
2018-05-24T21:23:20.284Z,14.40
2018-05-24T21:25:47.895Z,15.67
2018-05-24T21:28:15.476Z,16.30
2018-05-24T21:30:43.041Z,15.80
2018-05-24T21:33:10.645Z,15.77
2018-05-24T21:35:38.295Z,16.20
2018-05-24T21:38:05.903Z,17.00
2018-05-24T21:40:33.522Z,15.70
2018-05-24T21:43:01.188Z,17.47
2018-05-24T21:45:29.585Z,16.00
2018-05-24T21:47:57.238Z,15.30
2018-05-24T21:50:25.597Z,16.40
2018-05-24T21:52:54.086Z,17.77
2018-05-24T21:55:22.451Z,17.70
2018-05-24T21:57:50.065Z,16.73
2018-05-24T22:00:17.699Z,18.00
2018-05-24T22:02:46.092Z,17.83
2018-05-24T22:05:14.611Z,18.00
2018-05-24T22:07:42.242Z,19.37
2018-05-24T22:10:09.870Z,18.40
2018-05-24T22:12:37.469Z,18.10
2018-05-24T22:15:05.052Z,18.60
2018-05-24T22:17:32.685Z,17.23
2018-05-24T22:20:00.333Z,18.07
2018-05-24T22:22:27.934Z,18.13
2018-05-24T22:24:55.532Z,17.60
2018-05-24T22:27:23.187Z,18.10
2018-05-24T22:29:50.825Z,16.60
2018-05-24T22:32:18.448Z,16.33
2018-05-24T22:34:46.057Z,19.20
2018-05-24T22:37:13.666Z,17.43
2018-05-24T22:39:41.247Z,17.40
2018-05-24T22:42:08.845Z,16.90
2018-05-24T22:44:36.451Z,18.20
2018-05-24T22:47:04.113Z,16.80
2018-05-24T22:49:31.710Z,16.00
2018-05-24T22:51:59.331Z,18.47
2018-05-24T22:54:26.931Z,16.90
2018-05-24T22:56:54.539Z,16.07
2018-05-24T22:59:22.135Z,15.77
2018-05-24T23:01:49.784Z,16.10
2018-05-24T23:04:17.447Z,16.47
2018-05-24T23:06:45.057Z,16.63
2018-05-24T23:09:12.696Z,17.70
2018-05-24T23:11:40.272Z,16.90
2018-05-24T23:14:07.887Z,15.77
2018-05-24T23:16:35.513Z,15.90
2018-05-24T23:19:03.143Z,13.73
2018-05-24T23:21:30.755Z,15.70
2018-05-24T23:23:59.149Z,13.63
2018-05-24T23:26:26.741Z,13.73
2018-05-24T23:28:54.329Z,13.60
2018-05-24T23:31:21.990Z,14.03
2018-05-24T23:33:49.616Z,13.43
2018-05-24T23:36:17.865Z,15.13
2018-05-24T23:38:46.195Z,15.23
2018-05-24T23:41:13.854Z,14.03
2018-05-24T23:43:41.464Z,14.83
2018-05-24T23:46:09.818Z,13.80
2018-05-24T23:48:37.443Z,15.00
2018-05-24T23:51:05.055Z,13.60
2018-05-24T23:53:33.469Z,15.23
2018-05-24T23:56:01.138Z,14.60
2018-05-24T23:58:28.757Z,12.53
